Terminal Aerodrome Forecast
Issued by NWS

Home | Current Version | Previous Version | Text Only | Print | Product List | Glossary On
Versions: 1 2 3 4 5 6 7 8 9 10 11 12 13 14 15 16 17 18 19 20 21 22 23 24 25 26 27 28 29 30 31 32
381
FTUS41 KBOX 020520
TAFBED
TAF
KBED 020520Z 0206/0306 VRB03KT 3SM -DZ BR OVC005
     FM020900 VRB03KT P6SM VCSH OVC008
     FM021700 07005KT 3SM -RA BR OVC008
     FM021900 08005KT 2SM BR VCSH OVC008
     FM022300 05004KT 2SM BR VCSH OVC003
     FM030200 VRB03KT P6SM VCSH OVC003=

USA.gov is the U.S. government's official web portal to all federal, state and local government web resources and services.